DK-0008 weather

Holstebro Glider Field
Holstebro, Central Jutland, Denmark

Public forecast

Using degrees Celsius for public forecast. Weather courtesy of forecast.io.

METAR (pilot weather report)

Closest report is Karup Airport, 17.9 nm (33.2 km) E. Retrieved 2019/05/27 06:30 UTC (0 seconds ago):

EKKA 270630Z 22005KT 190V250 6000 OVC005 10/09 Q1000 BECMG 9999 BKN012

TAF (pilot weather forecast)

Closest forecast is Karup Airport, 17.9 nm (33.2 km) E. Retrieved 2019/05/27 06:30 UTC (0 seconds ago):

TAF EKKA 270500Z 2706/2806 24005KT 2500 -RADZ BR BKN003 BECMG 2706/2708 26012KT 9999 NSW BKN025 TEMPO 2708/2720 24012G25KT 6000 -SHRA BKN015TCU TEMPO 2720/2724 4000 -SHRA BKN008 SCT015TCU